Ashley, Pennsylvania
Current Conditions -  °F | °C
As of 8:54 PM on Monday 20 Oct 2014 (Local Time) from KAVP Reporting Station
Overcast Overcast  
Wind Chill: 55°   Ceiling: 8500
Heat Index: 55°   Visibility: 10mi
Dew Point: 40°   Wind: 6mph
Humidity: 57%   Direction: NA
Pressure: 29.93"   Gusts: NA
Location:  41.1921°N, 75.9213°W
Report Text: KAVP 210054Z AUTO VRB05KT 10SM OVC085 13/04 A2993 RMK AO2 SLP135 T01280044
Loading
Personal Weather Stations






























Interactive Weather Map
Tropical Storm Tracking
New forecast layout! Learn more

10-Day Weather Forecast

Advertisements
Track Severe Weather on mobile